createdAt,value
2019-06-10T00:00:31.402Z,1015.12
2019-06-10T00:01:31.475Z,1015.07
2019-06-10T00:02:31.046Z,1015.09
2019-06-10T00:03:31.805Z,1015.11
2019-06-10T00:04:30.979Z,1015.11
2019-06-10T00:05:30.846Z,1015.09
2019-06-10T00:06:31.156Z,1015.08
2019-06-10T00:07:31.604Z,1015.06
2019-06-10T00:08:30.954Z,1015.05
2019-06-10T00:09:31.186Z,1015.09
2019-06-10T00:10:31.153Z,1015.07
2019-06-10T00:11:31.519Z,1015.09
2019-06-10T00:12:31.453Z,1015.09
2019-06-10T00:13:31.459Z,1015.11
2019-06-10T00:14:31.467Z,1015.13
2019-06-10T00:15:31.392Z,1015.19
2019-06-10T00:16:30.937Z,1015.20
2019-06-10T00:17:31.437Z,1015.16
2019-06-10T00:18:41.049Z,1015.16
2019-06-10T00:19:31.769Z,1015.13
2019-06-10T00:20:30.650Z,1015.09
2019-06-10T00:21:30.852Z,1015.11
2019-06-10T00:22:31.509Z,1015.13
2019-06-10T00:23:32.012Z,1015.13
2019-06-10T00:24:31.527Z,1015.13
2019-06-10T00:25:31.382Z,1015.11
2019-06-10T00:26:30.827Z,1015.13
2019-06-10T00:27:31.191Z,1015.09
2019-06-10T00:28:31.102Z,1015.06
2019-06-10T00:29:31.313Z,1015.05
2019-06-10T00:30:31.324Z,1015.08
2019-06-10T00:31:31.308Z,1015.04
2019-06-10T00:32:32.025Z,1015.03
2019-06-10T00:33:30.943Z,1015.02
2019-06-10T00:34:31.539Z,1014.99
2019-06-10T00:35:31.531Z,1014.98
2019-06-10T00:36:30.877Z,1014.93
2019-06-10T00:37:31.547Z,1014.93
2019-06-10T00:38:31.866Z,1014.91
2019-06-10T00:39:31.252Z,1014.86
2019-06-10T00:40:31.686Z,1014.81
2019-06-10T00:41:31.290Z,1014.75
2019-06-10T00:42:31.443Z,1014.75
2019-06-10T00:43:30.648Z,1014.75
2019-06-10T00:44:31.116Z,1014.78
2019-06-10T00:45:31.539Z,1014.81
2019-06-10T00:46:31.699Z,1014.81
2019-06-10T00:47:30.780Z,1014.82
2019-06-10T00:48:32.335Z,1014.82
2019-06-10T00:49:31.715Z,1014.80
2019-06-10T00:50:30.845Z,1014.78
2019-06-10T00:51:31.351Z,1014.75
2019-06-10T00:52:30.873Z,1014.75
2019-06-10T00:53:31.609Z,1014.73
2019-06-10T00:54:31.216Z,1014.73
2019-06-10T00:55:31.468Z,1014.72
2019-06-10T00:56:30.838Z,1014.71
2019-06-10T00:57:31.440Z,1014.70
2019-06-10T00:58:31.781Z,1014.68
2019-06-10T00:59:31.201Z,1014.68
2019-06-10T01:00:31.638Z,1014.68
2019-06-10T01:01:31.274Z,1014.69
2019-06-10T01:02:31.740Z,1014.69
2019-06-10T01:03:31.410Z,1014.69
2019-06-10T01:04:31.750Z,1014.64
2019-06-10T01:05:31.256Z,1014.63
2019-06-10T01:06:31.638Z,1014.62
2019-06-10T01:07:31.156Z,1014.63
2019-06-10T01:08:31.427Z,1014.67
2019-06-10T01:09:31.057Z,1014.68
2019-06-10T01:10:31.530Z,1014.72
2019-06-10T01:11:31.049Z,1014.69
2019-06-10T01:12:31.489Z,1014.69
2019-06-10T01:13:30.952Z,1014.70
2019-06-10T01:14:29.241Z,1014.68
2019-06-10T01:15:31.173Z,1014.66
2019-06-10T01:16:31.634Z,1014.67
2019-06-10T01:17:31.138Z,1014.60
2019-06-10T01:18:37.570Z,1014.59
2019-06-10T01:19:31.053Z,1014.57
2019-06-10T01:20:29.101Z,1014.57
2019-06-10T01:21:31.158Z,1014.54
2019-06-10T01:22:31.461Z,1014.54
2019-06-10T01:23:30.932Z,1014.56
2019-06-10T01:24:31.279Z,1014.58
2019-06-10T01:25:30.991Z,1014.60
2019-06-10T01:26:31.015Z,1014.62
2019-06-10T01:27:31.372Z,1014.61
2019-06-10T01:28:31.191Z,1014.61
2019-06-10T01:29:31.298Z,1014.65
2019-06-10T01:30:31.074Z,1014.66
2019-06-10T01:31:31.561Z,1014.70
2019-06-10T01:32:31.009Z,1014.69
2019-06-10T01:33:28.795Z,1014.73
2019-06-10T01:34:30.967Z,1014.69
2019-06-10T01:35:30.596Z,1014.67
2019-06-10T01:36:31.197Z,1014.65
2019-06-10T01:37:30.964Z,1014.58
2019-06-10T01:38:28.664Z,1014.54
2019-06-10T01:39:30.716Z,1014.46
2019-06-10T01:40:31.270Z,1014.43
2019-06-10T01:41:30.604Z,1014.36
2019-06-10T01:42:30.693Z,1014.32
2019-06-10T01:43:28.542Z,1014.27
2019-06-10T01:44:30.802Z,1014.29
2019-06-10T01:45:28.495Z,1014.21
2019-06-10T01:46:28.492Z,1014.12
2019-06-10T01:47:30.840Z,1014.07
2019-06-10T01:48:40.554Z,1013.99
2019-06-10T01:49:30.614Z,1013.97
2019-06-10T01:50:28.370Z,1013.85
2019-06-10T01:51:28.363Z,1013.90
2019-06-10T01:52:28.313Z,1013.86
2019-06-10T01:53:28.291Z,1013.84
2019-06-10T01:54:28.263Z,1013.87
2019-06-10T01:55:28.243Z,1013.87
2019-06-10T01:56:28.238Z,1013.79
2019-06-10T01:57:30.741Z,1013.75
2019-06-10T01:58:28.171Z,1013.74
2019-06-10T01:59:30.980Z,1013.67
2019-06-10T02:00:28.121Z,1013.65
2019-06-10T02:01:30.537Z,1013.59
2019-06-10T02:02:28.060Z,1013.56
2019-06-10T02:03:28.032Z,1013.54
2019-06-10T02:04:28.011Z,1013.52
2019-06-10T02:05:27.980Z,1013.50
2019-06-10T02:06:27.997Z,1013.51
2019-06-10T02:07:27.922Z,1013.46
2019-06-10T02:08:27.897Z,1013.41
2019-06-10T02:09:27.869Z,1013.38
2019-06-10T02:10:27.845Z,1013.31
2019-06-10T02:11:27.816Z,1013.35
2019-06-10T02:12:27.821Z,1013.31
2019-06-10T02:13:27.763Z,1013.25
2019-06-10T02:14:27.735Z,1013.22
2019-06-10T02:15:27.719Z,1013.18
2019-06-10T02:16:27.682Z,1013.18
2019-06-10T02:17:27.687Z,1013.16
2019-06-10T02:18:27.630Z,1013.11
2019-06-10T02:19:27.603Z,1013.03
2019-06-10T02:20:27.573Z,1013.02
2019-06-10T02:21:27.550Z,1012.99
2019-06-10T02:22:27.545Z,1013.00
2019-06-10T02:23:27.493Z,1012.98
2019-06-10T02:24:27.464Z,1013.03
2019-06-10T02:25:27.440Z,1013.06
2019-06-10T02:26:27.412Z,1013.05
2019-06-10T02:27:27.407Z,1013.06
2019-06-10T02:28:27.357Z,1012.98
2019-06-10T02:29:27.331Z,1012.96
2019-06-10T02:30:40.430Z,1012.95
2019-06-10T02:31:35.555Z,1012.94
2019-06-10T02:32:32.989Z,1012.92
2019-06-10T02:33:30.923Z,1012.91
2019-06-10T02:34:27.783Z,1012.94
2019-06-10T02:35:43.062Z,1012.88
2019-06-10T02:36:31.074Z,1012.85
2019-06-10T02:37:32.230Z,1012.80
2019-06-10T02:38:33.970Z,1012.80
2019-06-10T02:39:33.703Z,1012.82
2019-06-10T02:40:32.074Z,1012.78
2019-06-10T02:41:31.970Z,1012.75
2019-06-10T02:42:30.697Z,1012.67
2019-06-10T02:43:31.920Z,1012.64
2019-06-10T02:44:33.128Z,1012.59
2019-06-10T02:45:33.666Z,1012.57
2019-06-10T02:46:31.156Z,1012.56
2019-06-10T02:47:33.435Z,1012.59
2019-06-10T02:48:30.411Z,1012.54
2019-06-10T02:49:46.911Z,1012.56
2019-06-10T02:50:32.290Z,1012.52
2019-06-10T02:51:30.716Z,1012.52
2019-06-10T02:52:32.670Z,1012.51
2019-06-10T02:53:30.666Z,1012.53
2019-06-10T02:54:31.489Z,1012.52
2019-06-10T02:55:30.905Z,1012.52
2019-06-10T02:56:30.759Z,1012.52
2019-06-10T02:57:32.887Z,1012.48
2019-06-10T02:58:33.290Z,1012.49
2019-06-10T02:59:30.025Z,1012.50
2019-06-10T03:00:36.817Z,1012.50
2019-06-10T03:01:32.121Z,1012.52
2019-06-10T03:02:31.928Z,1012.54
2019-06-10T03:03:36.949Z,1012.55
2019-06-10T03:04:31.459Z,1012.58
2019-06-10T03:05:31.456Z,1012.61
2019-06-10T03:06:33.428Z,1012.59
2019-06-10T03:07:29.359Z,1012.57
2019-06-10T03:08:29.817Z,1012.57
2019-06-10T03:09:30.025Z,1012.59
2019-06-10T03:10:30.878Z,1012.63
2019-06-10T03:11:29.673Z,1012.60
2019-06-10T03:12:26.204Z,1012.61
2019-06-10T03:13:26.152Z,1012.65
2019-06-10T03:14:26.124Z,1012.65
2019-06-10T03:15:26.794Z,1012.70
2019-06-10T03:16:26.074Z,1012.75
2019-06-10T03:17:26.090Z,1012.76
2019-06-10T03:18:26.059Z,1012.74
2019-06-10T03:19:42.277Z,1012.79
2019-06-10T03:20:26.043Z,1012.78
2019-06-10T03:21:26.041Z,1012.79
2019-06-10T03:22:25.979Z,1012.86
2019-06-10T03:23:27.779Z,1012.92
2019-06-10T03:24:25.868Z,1012.89
2019-06-10T03:25:26.496Z,1012.93
2019-06-10T03:26:25.806Z,1012.93
2019-06-10T03:27:26.571Z,1012.94
2019-06-10T03:28:25.780Z,1012.92
2019-06-10T03:29:26.883Z,1012.95
2019-06-10T03:30:37.330Z,1012.94
2019-06-10T03:31:33.922Z,1012.89
2019-06-10T03:32:33.190Z,1012.91
2019-06-10T03:33:34.544Z,1012.92
2019-06-10T03:34:33.485Z,1012.90
2019-06-10T03:35:26.884Z,1012.94
2019-06-10T03:36:27.010Z,1012.95
2019-06-10T03:37:26.351Z,1013.03
2019-06-10T03:38:28.109Z,1013.04
2019-06-10T03:39:27.378Z,1013.11
2019-06-10T03:40:27.471Z,1013.11
2019-06-10T03:41:26.789Z,1013.11
2019-06-10T03:42:26.880Z,1013.02
2019-06-10T03:43:26.673Z,1013.01
2019-06-10T03:44:27.130Z,1012.92
2019-06-10T03:45:28.066Z,1012.87
2019-06-10T03:46:26.997Z,1012.82
2019-06-10T03:47:27.051Z,1012.84
2019-06-10T03:48:26.826Z,1012.80
2019-06-10T03:49:26.861Z,1012.79
2019-06-10T03:50:26.807Z,1012.77
2019-06-10T03:51:27.443Z,1012.74
2019-06-10T03:52:26.761Z,1012.70
2019-06-10T03:53:26.765Z,1012.72
2019-06-10T03:54:28.226Z,1012.69
2019-06-10T03:55:27.945Z,1012.72
2019-06-10T03:56:25.483Z,1012.68
2019-06-10T03:57:26.824Z,1012.69
2019-06-10T03:58:27.451Z,1012.65
2019-06-10T03:59:27.799Z,1012.67
2019-06-10T04:00:27.201Z,1012.72
2019-06-10T04:01:28.279Z,1012.67
2019-06-10T04:02:25.595Z,1012.64
2019-06-10T04:03:27.478Z,1012.63
2019-06-10T04:04:25.612Z,1012.60
2019-06-10T04:05:25.765Z,1012.57
2019-06-10T04:06:27.312Z,1012.60
2019-06-10T04:07:28.341Z,1012.55
2019-06-10T04:08:25.410Z,1012.49
2019-06-10T04:09:25.831Z,1012.53
2019-06-10T04:10:27.785Z,1012.50
2019-06-10T04:11:26.781Z,1012.49
2019-06-10T04:12:26.224Z,1012.49
2019-06-10T04:13:25.830Z,1012.50
2019-06-10T04:14:25.453Z,1012.47
2019-06-10T04:15:26.580Z,1012.47
2019-06-10T04:16:26.674Z,1012.48
2019-06-10T04:17:25.741Z,1012.44
2019-06-10T04:18:26.572Z,1012.42
2019-06-10T04:19:26.829Z,1012.37
2019-06-10T04:20:26.499Z,1012.37
2019-06-10T04:21:25.816Z,1012.36
2019-06-10T04:22:26.592Z,1012.35
2019-06-10T04:23:25.467Z,1012.29
2019-06-10T04:24:25.449Z,1012.24
2019-06-10T04:25:26.666Z,1012.22
2019-06-10T04:26:25.759Z,1012.26
2019-06-10T04:27:25.615Z,1012.19
2019-06-10T04:28:25.834Z,1012.21
2019-06-10T04:29:25.882Z,1012.24
2019-06-10T04:30:26.107Z,1012.23
2019-06-10T04:31:25.444Z,1012.22
2019-06-10T04:32:25.726Z,1012.18
2019-06-10T04:33:25.791Z,1012.20
2019-06-10T04:34:28.257Z,1012.18
2019-06-10T04:35:25.936Z,1012.21
2019-06-10T04:36:26.197Z,1012.16
2019-06-10T04:37:26.173Z,1012.14
2019-06-10T04:38:25.983Z,1012.10
2019-06-10T04:39:26.050Z,1012.13
2019-06-10T04:40:26.015Z,1012.12
2019-06-10T04:41:24.980Z,1012.19
2019-06-10T04:42:25.718Z,1012.18
2019-06-10T04:43:25.957Z,1012.14
2019-06-10T04:44:26.102Z,1012.15
2019-06-10T04:45:26.015Z,1012.18
2019-06-10T04:46:26.423Z,1012.17
2019-06-10T04:47:25.263Z,1012.18
2019-06-10T04:48:25.882Z,1012.20
2019-06-10T04:49:25.514Z,1012.21
2019-06-10T04:50:33.121Z,1012.22
2019-06-10T04:51:26.479Z,1012.25
2019-06-10T04:52:25.180Z,1012.23
2019-06-10T04:53:25.238Z,1012.25
2019-06-10T04:54:26.306Z,1012.23
2019-06-10T04:55:25.033Z,1012.20
2019-06-10T04:56:25.838Z,1012.21
2019-06-10T04:57:25.086Z,1012.23
2019-06-10T04:58:25.929Z,1012.33
2019-06-10T04:59:26.044Z,1012.40
2019-06-10T05:00:25.461Z,1012.42
2019-06-10T05:01:25.558Z,1012.46
2019-06-10T05:02:26.430Z,1012.49
2019-06-10T05:03:24.980Z,1012.56
2019-06-10T05:04:24.066Z,1012.53
2019-06-10T05:05:24.990Z,1012.57
2019-06-10T05:06:25.203Z,1012.47
2019-06-10T05:07:34.181Z,1012.44
2019-06-10T05:08:23.923Z,1012.40
2019-06-10T05:09:24.395Z,1012.34
2019-06-10T05:10:24.113Z,1012.30
2019-06-10T05:11:24.198Z,1012.30
2019-06-10T05:12:24.965Z,1012.32
2019-06-10T05:13:24.168Z,1012.29
2019-06-10T05:14:25.268Z,1012.29
2019-06-10T05:15:24.910Z,1012.25
2019-06-10T05:16:27.046Z,1012.26
2019-06-10T05:17:26.102Z,1012.26
2019-06-10T05:18:25.496Z,1012.23
2019-06-10T05:19:24.754Z,1012.25
2019-06-10T05:20:43.655Z,1012.27
2019-06-10T05:21:25.991Z,1012.27
2019-06-10T05:22:25.329Z,1012.27
2019-06-10T05:23:24.869Z,1012.23
2019-06-10T05:24:25.196Z,1012.24
2019-06-10T05:25:24.195Z,1012.20
2019-06-10T05:26:25.495Z,1012.21
2019-06-10T05:27:24.232Z,1012.20
2019-06-10T05:28:24.462Z,1012.20
2019-06-10T05:29:24.945Z,1012.22
2019-06-10T05:30:25.040Z,1012.20
2019-06-10T05:31:26.691Z,1012.15
2019-06-10T05:32:23.219Z,1012.16
2019-06-10T05:33:23.134Z,1012.16
2019-06-10T05:34:25.062Z,1012.11
2019-06-10T05:35:24.367Z,1012.15
2019-06-10T05:36:25.621Z,1012.15
2019-06-10T05:37:23.761Z,1012.17
2019-06-10T05:38:23.992Z,1012.15
2019-06-10T05:39:24.221Z,1012.17
2019-06-10T05:40:24.772Z,1012.15
2019-06-10T05:41:24.850Z,1012.14
2019-06-10T05:42:24.429Z,1012.11
2019-06-10T05:43:23.756Z,1012.13
2019-06-10T05:44:24.223Z,1012.06
2019-06-10T05:45:24.481Z,1012.08
2019-06-10T05:46:23.975Z,1012.00
2019-06-10T05:47:25.952Z,1011.98
2019-06-10T05:48:22.723Z,1011.98
2019-06-10T05:49:24.165Z,1012.03
2019-06-10T05:50:23.409Z,1012.06
2019-06-10T05:51:25.880Z,1012.09
2019-06-10T05:52:23.385Z,1012.05
2019-06-10T05:53:23.089Z,1012.05
2019-06-10T05:54:23.357Z,1012.05
2019-06-10T05:55:22.818Z,1012.09
2019-06-10T05:56:23.508Z,1012.10
2019-06-10T05:57:23.023Z,1012.14
2019-06-10T05:58:23.504Z,1012.21
2019-06-10T05:59:23.038Z,1012.22
2019-06-10T06:00:23.357Z,1012.20
2019-06-10T06:01:24.268Z,1012.18
2019-06-10T06:02:22.280Z,1012.21
2019-06-10T06:03:22.977Z,1012.25
2019-06-10T06:04:23.353Z,1012.24
2019-06-10T06:05:22.200Z,1012.25
2019-06-10T06:06:22.937Z,1012.28
2019-06-10T06:07:22.238Z,1012.26
2019-06-10T06:08:22.786Z,1012.29
2019-06-10T06:09:22.130Z,1012.32
2019-06-10T06:10:22.372Z,1012.32
2019-06-10T06:11:23.151Z,1012.35
2019-06-10T06:12:22.560Z,1012.37
2019-06-10T06:13:23.224Z,1012.42
2019-06-10T06:14:22.677Z,1012.38
2019-06-10T06:15:22.125Z,1012.39
2019-06-10T06:16:23.076Z,1012.35
2019-06-10T06:17:23.608Z,1012.35
2019-06-10T06:18:22.564Z,1012.29
2019-06-10T06:19:23.147Z,1012.25
2019-06-10T06:20:23.397Z,1012.19
2019-06-10T06:21:29.563Z,1012.16
2019-06-10T06:22:22.114Z,1012.21
2019-06-10T06:23:23.174Z,1012.16
2019-06-10T06:24:22.059Z,1012.21
2019-06-10T06:25:24.093Z,1012.16
2019-06-10T06:26:23.546Z,1012.13
2019-06-10T06:27:22.495Z,1012.07
2019-06-10T06:28:22.964Z,1012.08
2019-06-10T06:29:22.243Z,1012.03
2019-06-10T06:30:22.670Z,1012.00
2019-06-10T06:31:23.134Z,1012.02
2019-06-10T06:32:23.426Z,1011.99
2019-06-10T06:33:22.148Z,1012.01
2019-06-10T06:34:22.521Z,1011.97
2019-06-10T06:35:22.700Z,1011.93
2019-06-10T06:36:22.643Z,1011.84
2019-06-10T06:37:23.040Z,1011.71
2019-06-10T06:38:22.431Z,1011.60
2019-06-10T06:39:20.845Z,1011.55
2019-06-10T06:40:22.964Z,1011.49
2019-06-10T06:41:22.657Z,1011.49
2019-06-10T06:42:22.848Z,1011.52
2019-06-10T06:43:22.236Z,1011.56
2019-06-10T06:44:23.190Z,1011.55
2019-06-10T06:45:22.233Z,1011.58
2019-06-10T06:46:23.130Z,1011.63
2019-06-10T06:47:22.607Z,1011.62
2019-06-10T06:48:22.612Z,1011.63
2019-06-10T06:49:22.962Z,1011.60
2019-06-10T06:50:24.860Z,1011.63
2019-06-10T06:51:35.483Z,1011.60
2019-06-10T06:52:38.911Z,1011.60
2019-06-10T06:53:31.930Z,1011.58
2019-06-10T06:54:22.880Z,1011.53
2019-06-10T06:55:20.468Z,1011.50
2019-06-10T06:56:22.879Z,1011.49
2019-06-10T06:57:22.359Z,1011.51
2019-06-10T06:58:20.394Z,1011.54
2019-06-10T06:59:22.295Z,1011.65
2019-06-10T07:00:38.294Z,1011.68
2019-06-10T07:01:23.250Z,1011.71
2019-06-10T07:02:22.571Z,1011.72
2019-06-10T07:03:20.278Z,1011.71
2019-06-10T07:04:20.259Z,1011.72
2019-06-10T07:05:24.772Z,1011.70
2019-06-10T07:06:22.772Z,1011.71
2019-06-10T07:07:22.104Z,1011.74
2019-06-10T07:08:20.157Z,1011.78
2019-06-10T07:09:22.095Z,1011.77
2019-06-10T07:10:20.110Z,1011.80
2019-06-10T07:11:22.258Z,1011.80
2019-06-10T07:12:20.151Z,1011.77
2019-06-10T07:13:22.053Z,1011.75
2019-06-10T07:14:20.016Z,1011.73
2019-06-10T07:15:22.380Z,1011.72
2019-06-10T07:16:23.035Z,1011.71
2019-06-10T07:17:22.584Z,1011.74
2019-06-10T07:18:19.950Z,1011.69
2019-06-10T07:19:22.504Z,1011.72
2019-06-10T07:20:19.884Z,1011.71
2019-06-10T07:21:19.861Z,1011.72
2019-06-10T07:22:19.831Z,1011.69
2019-06-10T07:23:22.394Z,1011.70
2019-06-10T07:24:19.790Z,1011.66
2019-06-10T07:25:19.764Z,1011.73
2019-06-10T07:26:22.018Z,1011.72
2019-06-10T07:27:19.718Z,1011.73
2019-06-10T07:28:19.901Z,1011.69
2019-06-10T07:29:19.675Z,1011.74
2019-06-10T07:30:19.675Z,1011.66
2019-06-10T07:31:24.845Z,1011.66
2019-06-10T07:32:19.609Z,1011.67
2019-06-10T07:33:19.610Z,1011.66
2019-06-10T07:34:22.112Z,1011.69
2019-06-10T07:35:19.542Z,1011.72
2019-06-10T07:36:19.548Z,1011.74
2019-06-10T07:37:20.281Z,1011.69
2019-06-10T07:38:22.052Z,1011.70
2019-06-10T07:39:19.543Z,1011.73
2019-06-10T07:40:19.435Z,1011.71
2019-06-10T07:41:19.417Z,1011.71
2019-06-10T07:42:19.512Z,1011.67
2019-06-10T07:43:19.413Z,1011.68
2019-06-10T07:44:19.354Z,1011.60
2019-06-10T07:45:19.377Z,1011.57
2019-06-10T07:46:19.321Z,1011.59
2019-06-10T07:47:19.359Z,1011.54
2019-06-10T07:48:19.320Z,1011.56
2019-06-10T07:49:19.797Z,1011.58
2019-06-10T07:50:19.226Z,1011.58
2019-06-10T07:51:22.632Z,1011.55
2019-06-10T07:52:20.095Z,1011.60
2019-06-10T07:53:19.181Z,1011.60
2019-06-10T07:54:19.137Z,1011.61
2019-06-10T07:55:19.118Z,1011.61
2019-06-10T07:56:19.148Z,1011.65
2019-06-10T07:57:19.081Z,1011.64
2019-06-10T07:58:19.428Z,1011.65
2019-06-10T07:59:19.041Z,1011.61
2019-06-10T08:00:19.125Z,1011.61
2019-06-10T08:01:19.006Z,1011.66
2019-06-10T08:02:19.017Z,1011.63
2019-06-10T08:03:19.059Z,1011.62
2019-06-10T08:04:18.987Z,1011.60
2019-06-10T08:05:18.917Z,1011.60
2019-06-10T08:06:18.912Z,1011.63
2019-06-10T08:07:18.880Z,1011.66
2019-06-10T08:08:19.873Z,1011.69
2019-06-10T08:09:18.840Z,1011.68
2019-06-10T08:10:18.902Z,1011.68
2019-06-10T08:11:18.889Z,1011.71
2019-06-10T08:12:18.769Z,1011.72
2019-06-10T08:13:18.747Z,1011.73
2019-06-10T08:14:18.777Z,1011.71
2019-06-10T08:15:18.734Z,1011.69
2019-06-10T08:16:19.310Z,1011.68
2019-06-10T08:17:18.699Z,1011.68
2019-06-10T08:18:19.296Z,1011.68
2019-06-10T08:19:33.747Z,1011.65
2019-06-10T08:20:18.671Z,1011.66
2019-06-10T08:21:18.606Z,1011.69
2019-06-10T08:22:32.988Z,1011.67
2019-06-10T08:23:18.599Z,1011.70
2019-06-10T08:24:18.571Z,1011.70
2019-06-10T08:25:18.501Z,1011.71
2019-06-10T08:26:18.475Z,1011.72
2019-06-10T08:27:18.464Z,1011.73
2019-06-10T08:28:18.483Z,1011.66
2019-06-10T08:29:18.452Z,1011.72
2019-06-10T08:30:23.187Z,1011.74
2019-06-10T08:31:18.382Z,1011.73
2019-06-10T08:32:18.371Z,1011.71
2019-06-10T08:33:18.343Z,1011.70
2019-06-10T08:34:18.362Z,1011.68
2019-06-10T08:35:18.356Z,1011.67
2019-06-10T08:36:18.352Z,1011.63
2019-06-10T08:37:18.297Z,1011.62
2019-06-10T08:38:18.313Z,1011.53
2019-06-10T08:39:18.882Z,1011.51
2019-06-10T08:40:18.208Z,1011.46
2019-06-10T08:41:18.183Z,1011.46
2019-06-10T08:42:18.166Z,1011.44
2019-06-10T08:43:18.290Z,1011.46
2019-06-10T08:44:18.151Z,1011.39
2019-06-10T08:45:18.109Z,1011.43
2019-06-10T08:46:18.086Z,1011.47
2019-06-10T08:47:18.078Z,1011.46
2019-06-10T08:48:18.056Z,1011.44
2019-06-10T08:49:18.069Z,1011.43
2019-06-10T08:50:21.111Z,1011.49
2019-06-10T08:51:17.998Z,1011.42
2019-06-10T08:52:17.986Z,1011.45
2019-06-10T08:53:18.330Z,1011.45
2019-06-10T08:54:17.968Z,1011.46
2019-06-10T08:55:17.924Z,1011.51
2019-06-10T08:56:17.916Z,1011.54
2019-06-10T08:57:17.899Z,1011.55
2019-06-10T08:58:17.874Z,1011.52
2019-06-10T08:59:17.872Z,1011.49
2019-06-10T09:00:18.778Z,1011.50
2019-06-10T09:01:17.812Z,1011.49
2019-06-10T09:02:17.803Z,1011.46
2019-06-10T09:03:17.787Z,1011.46
2019-06-10T09:04:17.788Z,1011.44
2019-06-10T09:05:17.740Z,1011.45
2019-06-10T09:06:17.728Z,1011.43
2019-06-10T09:07:17.712Z,1011.47
2019-06-10T09:08:17.697Z,1011.47
2019-06-10T09:09:17.724Z,1011.50
2019-06-10T09:10:17.663Z,1011.49
2019-06-10T09:11:20.551Z,1011.51
2019-06-10T09:12:32.331Z,1011.49
2019-06-10T09:13:17.604Z,1011.45
2019-06-10T09:14:17.589Z,1011.43
2019-06-10T09:15:17.595Z,1011.43
2019-06-10T09:16:19.494Z,1011.39
2019-06-10T09:17:17.532Z,1011.36
2019-06-10T09:18:20.192Z,1011.37
2019-06-10T09:19:17.504Z,1011.36
2019-06-10T09:20:17.516Z,1011.35
2019-06-10T09:21:17.470Z,1011.42
2019-06-10T09:22:17.450Z,1011.39
2019-06-10T09:23:22.193Z,1011.37
2019-06-10T09:24:17.442Z,1011.38
2019-06-10T09:25:17.427Z,1011.36
2019-06-10T09:26:17.378Z,1011.33
2019-06-10T09:27:17.371Z,1011.27
2019-06-10T09:28:17.349Z,1011.30
2019-06-10T09:29:17.332Z,1011.23
2019-06-10T09:30:17.344Z,1011.22
2019-06-10T09:31:17.292Z,1011.22
2019-06-10T09:32:17.290Z,1011.16
2019-06-10T09:33:17.266Z,1011.13
2019-06-10T09:34:17.257Z,1011.14
2019-06-10T09:35:17.254Z,1011.12
2019-06-10T09:36:17.262Z,1011.12
2019-06-10T09:37:17.200Z,1011.11
2019-06-10T09:38:17.173Z,1011.14
2019-06-10T09:39:17.160Z,1011.17
2019-06-10T09:40:17.214Z,1011.15
2019-06-10T09:41:17.122Z,1011.08
2019-06-10T09:42:17.107Z,1011.10
2019-06-10T09:43:17.250Z,1011.07
2019-06-10T09:44:17.073Z,1011.05
2019-06-10T09:45:17.082Z,1011.05
2019-06-10T09:46:17.034Z,1011.03
2019-06-10T09:47:17.021Z,1011.03
2019-06-10T09:48:17.006Z,1010.98
2019-06-10T09:49:16.987Z,1011.03
2019-06-10T09:50:16.993Z,1011.04
2019-06-10T09:51:17.035Z,1011.07
2019-06-10T09:52:17.201Z,1011.05
2019-06-10T09:53:30.171Z,1011.09
2019-06-10T09:54:17.070Z,1011.12
2019-06-10T09:55:17.353Z,1011.13
2019-06-10T09:56:16.870Z,1011.15
2019-06-10T09:57:16.861Z,1011.15
2019-06-10T09:58:16.855Z,1011.18
2019-06-10T09:59:16.873Z,1011.21
2019-06-10T10:00:16.802Z,1011.23
2019-06-10T10:01:16.786Z,1011.22
2019-06-10T10:02:16.823Z,1011.21
2019-06-10T10:03:16.757Z,1011.19
2019-06-10T10:04:16.784Z,1011.19
2019-06-10T10:05:16.734Z,1011.17
2019-06-10T10:06:16.707Z,1011.18
2019-06-10T10:07:16.683Z,1011.18
2019-06-10T10:08:16.676Z,1011.19
2019-06-10T10:09:16.715Z,1011.22
2019-06-10T10:10:16.646Z,1011.20
2019-06-10T10:11:16.620Z,1011.18
2019-06-10T10:12:16.606Z,1011.19
2019-06-10T10:13:16.584Z,1011.20
2019-06-10T10:14:16.618Z,1011.24
2019-06-10T10:15:27.516Z,1011.20
2019-06-10T10:16:16.542Z,1011.21
2019-06-10T10:17:16.527Z,1011.20
2019-06-10T10:18:16.511Z,1011.19
2019-06-10T10:19:16.536Z,1011.19
2019-06-10T10:20:16.480Z,1011.18
2019-06-10T10:21:16.467Z,1011.18
2019-06-10T10:22:16.444Z,1011.15
2019-06-10T10:23:16.436Z,1011.11
2019-06-10T10:24:16.567Z,1011.13
2019-06-10T10:25:16.400Z,1011.10
2019-06-10T10:26:16.600Z,1011.13
2019-06-10T10:27:16.370Z,1011.08
2019-06-10T10:28:16.371Z,1011.08
2019-06-10T10:29:16.382Z,1011.03
2019-06-10T10:30:16.321Z,1011.02
2019-06-10T10:31:16.308Z,1011.00
2019-06-10T10:32:16.293Z,1010.99
2019-06-10T10:33:16.331Z,1011.00
2019-06-10T10:34:16.271Z,1011.01
2019-06-10T10:35:16.247Z,1011.05
2019-06-10T10:36:16.272Z,1010.97
2019-06-10T10:37:16.256Z,1011.05
2019-06-10T10:38:16.205Z,1011.03
2019-06-10T10:39:16.222Z,1011.04
2019-06-10T10:40:16.175Z,1011.02
2019-06-10T10:41:16.151Z,1011.04
2019-06-10T10:42:16.136Z,1011.02
2019-06-10T10:43:25.408Z,1011.00
2019-06-10T10:44:16.150Z,1010.96
2019-06-10T10:45:16.086Z,1010.94
2019-06-10T10:46:16.067Z,1010.89
2019-06-10T10:47:16.105Z,1010.91
2019-06-10T10:48:16.088Z,1010.85
2019-06-10T10:49:16.025Z,1010.87
2019-06-10T10:50:16.006Z,1010.85
2019-06-10T10:51:16.052Z,1010.86
2019-06-10T10:52:15.979Z,1010.88
2019-06-10T10:53:15.963Z,1010.87
2019-06-10T10:54:25.530Z,1010.91
2019-06-10T10:55:15.928Z,1010.90
2019-06-10T10:56:15.966Z,1010.95
2019-06-10T10:57:15.910Z,1010.95
2019-06-10T10:58:15.888Z,1010.99
2019-06-10T10:59:15.869Z,1010.95
2019-06-10T11:00:15.849Z,1010.97
2019-06-10T11:01:16.438Z,1010.91
2019-06-10T11:02:15.890Z,1010.96
2019-06-10T11:03:15.804Z,1010.94
2019-06-10T11:04:15.787Z,1010.93
2019-06-10T11:05:15.778Z,1010.91
2019-06-10T11:06:15.794Z,1010.91
2019-06-10T11:07:15.788Z,1010.84
2019-06-10T11:08:15.728Z,1010.83
2019-06-10T11:09:15.714Z,1010.78
2019-06-10T11:10:15.712Z,1010.77
2019-06-10T11:11:15.720Z,1010.76
2019-06-10T11:12:15.665Z,1010.72
2019-06-10T11:13:15.703Z,1010.75
2019-06-10T11:14:15.704Z,1010.72
2019-06-10T11:15:15.639Z,1010.73
2019-06-10T11:16:15.610Z,1010.74
2019-06-10T11:17:15.610Z,1010.74
2019-06-10T11:18:15.583Z,1010.72
2019-06-10T11:19:15.561Z,1010.68
2019-06-10T11:20:15.634Z,1010.68
2019-06-10T11:21:15.529Z,1010.70
2019-06-10T11:22:15.538Z,1010.69
2019-06-10T11:23:16.083Z,1010.70
2019-06-10T11:24:32.484Z,1010.69
2019-06-10T11:25:15.468Z,1010.67
2019-06-10T11:26:15.454Z,1010.63
2019-06-10T11:27:15.460Z,1010.61
2019-06-10T11:28:15.423Z,1010.58
2019-06-10T11:29:15.410Z,1010.59
2019-06-10T11:30:15.401Z,1010.60
2019-06-10T11:31:15.421Z,1010.61
2019-06-10T11:32:15.384Z,1010.55
2019-06-10T11:33:15.912Z,1010.54
2019-06-10T11:34:15.356Z,1010.52
2019-06-10T11:35:15.325Z,1010.52
2019-06-10T11:36:15.303Z,1010.58
2019-06-10T11:37:15.310Z,1010.51
2019-06-10T11:38:15.276Z,1010.51
2019-06-10T11:39:15.852Z,1010.50
2019-06-10T11:40:15.246Z,1010.51
2019-06-10T11:41:15.238Z,1010.50
2019-06-10T11:42:15.249Z,1010.45
2019-06-10T11:43:15.208Z,1010.47
2019-06-10T11:44:15.190Z,1010.45
2019-06-10T11:45:15.173Z,1010.46
2019-06-10T11:46:15.154Z,1010.42
2019-06-10T11:47:15.162Z,1010.43
2019-06-10T11:48:15.127Z,1010.42
2019-06-10T11:49:15.108Z,1010.38
2019-06-10T11:50:15.151Z,1010.39
2019-06-10T11:51:15.088Z,1010.40
2019-06-10T11:52:15.092Z,1010.39
2019-06-10T11:53:15.052Z,1010.37
2019-06-10T11:54:15.030Z,1010.37
2019-06-10T11:55:18.924Z,1010.33
2019-06-10T11:56:14.997Z,1010.36
2019-06-10T11:57:15.011Z,1010.39
2019-06-10T11:58:14.960Z,1010.37
2019-06-10T11:59:14.951Z,1010.40
2019-06-10T12:00:17.335Z,1010.40
2019-06-10T12:01:14.920Z,1010.40
2019-06-10T12:02:14.936Z,1010.35
2019-06-10T12:03:14.912Z,1010.34
2019-06-10T12:04:14.886Z,1010.33
2019-06-10T12:05:16.464Z,1010.27